sensor_id;sensor_type;location;lat;lon;timestamp;pressure;altitude;pressure_sealevel;temperature;humidity
16613;BME280;8419;52.358;9.752;2022-08-14T00:00:17;100801.00;;;32.81;30.98
16613;BME280;8419;52.358;9.752;2022-08-14T00:03:03;100803.00;;;32.79;31.04
16613;BME280;8419;52.358;9.752;2022-08-14T00:05:49;100799.00;;;32.82;31.00
16613;BME280;8419;52.358;9.752;2022-08-14T00:08:34;100797.00;;;32.79;31.04
16613;BME280;8419;52.358;9.752;2022-08-14T00:11:20;100798.00;;;32.81;31.01
16613;BME280;8419;52.358;9.752;2022-08-14T00:14:05;100799.00;;;32.75;31.10
16613;BME280;8419;52.358;9.752;2022-08-14T00:16:51;100807.00;;;32.75;31.12
16613;BME280;8419;52.358;9.752;2022-08-14T00:19:36;100799.00;;;32.75;31.13
16613;BME280;8419;52.358;9.752;2022-08-14T00:22:22;100806.00;;;32.76;31.15
16613;BME280;8419;52.358;9.752;2022-08-14T00:25:09;100806.00;;;32.73;31.23
16613;BME280;8419;52.358;9.752;2022-08-14T00:27:54;100807.00;;;32.75;31.22
16613;BME280;8419;52.358;9.752;2022-08-14T00:30:40;100802.00;;;32.74;31.23
16613;BME280;8419;52.358;9.752;2022-08-14T00:33:27;100803.00;;;32.84;31.12
16613;BME280;8419;52.358;9.752;2022-08-14T00:36:13;100804.00;;;32.74;31.30
16613;BME280;8419;52.358;9.752;2022-08-14T00:38:58;100811.00;;;32.66;31.42
16613;BME280;8419;52.358;9.752;2022-08-14T00:41:45;100811.00;;;32.68;31.41
16613;BME280;8419;52.358;9.752;2022-08-14T00:44:31;100793.00;;;32.62;31.52
16613;BME280;8419;52.358;9.752;2022-08-14T00:47:17;100788.00;;;32.57;31.57
16613;BME280;8419;52.358;9.752;2022-08-14T00:50:05;100783.00;;;32.53;31.66
16613;BME280;8419;52.358;9.752;2022-08-14T00:52:51;100781.00;;;32.46;31.75
16613;BME280;8419;52.358;9.752;2022-08-14T00:55:37;100778.00;;;32.41;31.80
16613;BME280;8419;52.358;9.752;2022-08-14T00:58:26;100773.00;;;32.38;31.83
16613;BME280;8419;52.358;9.752;2022-08-14T01:01:15;100781.00;;;32.41;31.81
16613;BME280;8419;52.358;9.752;2022-08-14T01:04:03;100778.00;;;32.35;31.91
16613;BME280;8419;52.358;9.752;2022-08-14T01:06:50;100766.00;;;32.32;32.00
16613;BME280;8419;52.358;9.752;2022-08-14T01:09:37;100763.00;;;32.36;31.91
16613;BME280;8419;52.358;9.752;2022-08-14T01:12:24;100761.00;;;32.26;32.06
16613;BME280;8419;52.358;9.752;2022-08-14T01:15:10;100761.00;;;32.31;32.04
16613;BME280;8419;52.358;9.752;2022-08-14T01:17:56;100754.00;;;32.30;32.04
16613;BME280;8419;52.358;9.752;2022-08-14T01:21:02;100751.00;;;32.23;32.17
16613;BME280;8419;52.358;9.752;2022-08-14T01:23:49;100751.00;;;32.22;32.15
16613;BME280;8419;52.358;9.752;2022-08-14T01:26:36;100751.00;;;32.14;32.32
16613;BME280;8419;52.358;9.752;2022-08-14T01:29:22;100760.00;;;32.20;32.25
16613;BME280;8419;52.358;9.752;2022-08-14T01:32:08;100753.00;;;32.11;32.38
16613;BME280;8419;52.358;9.752;2022-08-14T01:34:55;100745.00;;;32.09;32.42
16613;BME280;8419;52.358;9.752;2022-08-14T01:37:43;100742.00;;;32.06;32.48
16613;BME280;8419;52.358;9.752;2022-08-14T01:40:28;100755.00;;;32.07;32.52
16613;BME280;8419;52.358;9.752;2022-08-14T01:43:15;100746.00;;;32.02;32.57
16613;BME280;8419;52.358;9.752;2022-08-14T01:46:01;100739.00;;;32.01;32.59
16613;BME280;8419;52.358;9.752;2022-08-14T01:48:47;100740.00;;;32.03;32.54
16613;BME280;8419;52.358;9.752;2022-08-14T01:51:33;100739.00;;;32.01;32.60
16613;BME280;8419;52.358;9.752;2022-08-14T01:54:19;100730.00;;;31.93;32.72
16613;BME280;8419;52.358;9.752;2022-08-14T01:57:05;100736.00;;;31.99;32.62
16613;BME280;8419;52.358;9.752;2022-08-14T01:59:55;100732.00;;;32.00;32.65
16613;BME280;8419;52.358;9.752;2022-08-14T02:02:41;100726.00;;;31.90;32.81
16613;BME280;8419;52.358;9.752;2022-08-14T02:05:27;100730.00;;;31.90;32.81
16613;BME280;8419;52.358;9.752;2022-08-14T02:08:13;100731.00;;;31.95;32.76
16613;BME280;8419;52.358;9.752;2022-08-14T02:10:59;100728.00;;;31.93;32.79
16613;BME280;8419;52.358;9.752;2022-08-14T02:14:07;100725.00;;;31.96;32.77
16613;BME280;8419;52.358;9.752;2022-08-14T02:16:54;100719.00;;;32.05;32.60
16613;BME280;8419;52.358;9.752;2022-08-14T02:19:41;100723.00;;;31.98;32.76
16613;BME280;8419;52.358;9.752;2022-08-14T02:22:27;100721.00;;;32.00;32.74
16613;BME280;8419;52.358;9.752;2022-08-14T02:25:13;100715.00;;;31.98;32.80
16613;BME280;8419;52.358;9.752;2022-08-14T02:27:59;100708.00;;;31.87;32.97
16613;BME280;8419;52.358;9.752;2022-08-14T02:30:44;100713.00;;;31.85;33.02
16613;BME280;8419;52.358;9.752;2022-08-14T02:33:30;100712.00;;;31.82;33.09
16613;BME280;8419;52.358;9.752;2022-08-14T02:36:17;100711.00;;;31.81;33.10
16613;BME280;8419;52.358;9.752;2022-08-14T02:39:03;100706.00;;;31.78;33.15
16613;BME280;8419;52.358;9.752;2022-08-14T02:41:49;100697.00;;;31.78;33.18
16613;BME280;8419;52.358;9.752;2022-08-14T02:44:35;100700.00;;;31.83;33.11
16613;BME280;8419;52.358;9.752;2022-08-14T02:47:22;100697.00;;;31.89;33.03
16613;BME280;8419;52.358;9.752;2022-08-14T02:50:09;100697.00;;;31.89;33.03
16613;BME280;8419;52.358;9.752;2022-08-14T02:52:55;100694.00;;;31.81;33.13
16613;BME280;8419;52.358;9.752;2022-08-14T02:55:41;100701.00;;;31.75;33.22
16613;BME280;8419;52.358;9.752;2022-08-14T02:58:29;100692.00;;;31.66;33.37
16613;BME280;8419;52.358;9.752;2022-08-14T03:01:16;100691.00;;;31.72;33.34
16613;BME280;8419;52.358;9.752;2022-08-14T03:04:02;100692.00;;;31.76;33.23
16613;BME280;8419;52.358;9.752;2022-08-14T03:06:50;100686.00;;;31.77;33.21
16613;BME280;8419;52.358;9.752;2022-08-14T03:09:36;100682.00;;;31.74;33.25
16613;BME280;8419;52.358;9.752;2022-08-14T03:12:25;100683.00;;;31.72;33.29
16613;BME280;8419;52.358;9.752;2022-08-14T03:15:10;100687.00;;;31.61;33.49
16613;BME280;8419;52.358;9.752;2022-08-14T03:17:58;100690.00;;;31.68;33.34
16613;BME280;8419;52.358;9.752;2022-08-14T03:20:44;100690.00;;;31.68;33.35
16613;BME280;8419;52.358;9.752;2022-08-14T03:23:29;100684.00;;;31.71;33.31
16613;BME280;8419;52.358;9.752;2022-08-14T03:26:19;100676.00;;;31.63;33.44
16613;BME280;8419;52.358;9.752;2022-08-14T03:29:14;100675.00;;;31.59;33.53
16613;BME280;8419;52.358;9.752;2022-08-14T03:32:01;100674.00;;;31.60;33.53
16613;BME280;8419;52.358;9.752;2022-08-14T03:34:47;100673.00;;;31.58;33.53
16613;BME280;8419;52.358;9.752;2022-08-14T03:37:32;100666.00;;;31.47;33.71
16613;BME280;8419;52.358;9.752;2022-08-14T03:40:17;100666.00;;;31.47;33.72
16613;BME280;8419;52.358;9.752;2022-08-14T03:43:03;100663.00;;;31.55;33.58
16613;BME280;8419;52.358;9.752;2022-08-14T03:45:49;100658.00;;;31.41;33.78
16613;BME280;8419;52.358;9.752;2022-08-14T03:48:34;100653.00;;;31.43;33.78
16613;BME280;8419;52.358;9.752;2022-08-14T03:51:20;100658.00;;;31.29;33.98
16613;BME280;8419;52.358;9.752;2022-08-14T03:54:08;100651.00;;;31.32;33.98
16613;BME280;8419;52.358;9.752;2022-08-14T03:56:56;100657.00;;;31.25;34.05
16613;BME280;8419;52.358;9.752;2022-08-14T03:59:45;100651.00;;;31.18;34.17
16613;BME280;8419;52.358;9.752;2022-08-14T04:02:31;100646.00;;;31.14;34.23
16613;BME280;8419;52.358;9.752;2022-08-14T04:05:16;100650.00;;;31.08;34.33
16613;BME280;8419;52.358;9.752;2022-08-14T04:08:01;100648.00;;;31.06;34.36
16613;BME280;8419;52.358;9.752;2022-08-14T04:10:47;100647.00;;;31.09;34.35
16613;BME280;8419;52.358;9.752;2022-08-14T04:13:37;100648.00;;;30.98;34.56
16613;BME280;8419;52.358;9.752;2022-08-14T04:16:23;100637.00;;;30.95;34.66
16613;BME280;8419;52.358;9.752;2022-08-14T04:19:08;100649.00;;;30.99;34.60
16613;BME280;8419;52.358;9.752;2022-08-14T04:21:54;100642.00;;;30.93;34.70
16613;BME280;8419;52.358;9.752;2022-08-14T04:24:40;100634.00;;;31.05;34.54
16613;BME280;8419;52.358;9.752;2022-08-14T04:27:25;100641.00;;;30.93;34.78
16613;BME280;8419;52.358;9.752;2022-08-14T04:30:12;100644.00;;;30.94;34.76
16613;BME280;8419;52.358;9.752;2022-08-14T04:32:58;100634.00;;;30.97;34.73
16613;BME280;8419;52.358;9.752;2022-08-14T04:35:43;100630.00;;;30.99;34.71
16613;BME280;8419;52.358;9.752;2022-08-14T04:38:29;100630.00;;;30.99;34.73
16613;BME280;8419;52.358;9.752;2022-08-14T04:41:36;100636.00;;;31.03;34.69
16613;BME280;8419;52.358;9.752;2022-08-14T04:44:40;100630.00;;;31.01;34.70
16613;BME280;8419;52.358;9.752;2022-08-14T04:47:25;100619.00;;;30.96;34.74
16613;BME280;8419;52.358;9.752;2022-08-14T04:50:29;100617.00;;;31.01;34.67
16613;BME280;8419;52.358;9.752;2022-08-14T04:53:17;100620.00;;;31.00;34.69
16613;BME280;8419;52.358;9.752;2022-08-14T04:56:04;100622.00;;;31.01;34.75
16613;BME280;8419;52.358;9.752;2022-08-14T04:58:52;100619.00;;;30.97;34.81
16613;BME280;8419;52.358;9.752;2022-08-14T05:01:41;100610.00;;;30.97;34.87
16613;BME280;8419;52.358;9.752;2022-08-14T05:04:28;100610.00;;;30.97;34.87
16613;BME280;8419;52.358;9.752;2022-08-14T05:07:13;100601.00;;;31.08;34.74
16613;BME280;8419;52.358;9.752;2022-08-14T05:09:59;100601.00;;;31.08;34.78
16613;BME280;8419;52.358;9.752;2022-08-14T05:12:44;100594.00;;;31.10;34.80
16613;BME280;8419;52.358;9.752;2022-08-14T05:15:29;100592.00;;;31.10;34.88
16613;BME280;8419;52.358;9.752;2022-08-14T05:18:17;100598.00;;;31.22;34.71
16613;BME280;8419;52.358;9.752;2022-08-14T05:21:04;100595.00;;;31.30;34.61
16613;BME280;8419;52.358;9.752;2022-08-14T05:23:51;100599.00;;;31.35;34.58
16613;BME280;8419;52.358;9.752;2022-08-14T05:26:36;100598.00;;;31.38;34.56
16613;BME280;8419;52.358;9.752;2022-08-14T05:29:25;100595.00;;;31.34;34.68
16613;BME280;8419;52.358;9.752;2022-08-14T05:32:11;100590.00;;;31.36;34.72
16613;BME280;8419;52.358;9.752;2022-08-14T05:34:58;100587.00;;;31.41;34.66
16613;BME280;8419;52.358;9.752;2022-08-14T05:37:44;100588.00;;;31.46;34.64
16613;BME280;8419;52.358;9.752;2022-08-14T05:40:30;100591.00;;;31.46;34.67
16613;BME280;8419;52.358;9.752;2022-08-14T05:43:16;100586.00;;;31.45;34.70
16613;BME280;8419;52.358;9.752;2022-08-14T05:46:02;100590.00;;;31.44;34.75
16613;BME280;8419;52.358;9.752;2022-08-14T05:48:49;100583.00;;;31.50;34.70
16613;BME280;8419;52.358;9.752;2022-08-14T05:51:34;100574.00;;;31.58;34.62
16613;BME280;8419;52.358;9.752;2022-08-14T05:54:19;100574.00;;;31.56;34.69
16613;BME280;8419;52.358;9.752;2022-08-14T05:57:05;100575.00;;;31.55;34.79
16613;BME280;8419;52.358;9.752;2022-08-14T05:59:50;100565.00;;;31.52;34.92
16613;BME280;8419;52.358;9.752;2022-08-14T06:02:35;100562.00;;;31.60;34.83
16613;BME280;8419;52.358;9.752;2022-08-14T06:05:21;100561.00;;;31.66;34.79
16613;BME280;8419;52.358;9.752;2022-08-14T06:08:14;100563.00;;;31.73;34.77
16613;BME280;8419;52.358;9.752;2022-08-14T06:11:02;100564.00;;;31.86;34.69
16613;BME280;8419;52.358;9.752;2022-08-14T06:13:48;100571.00;;;31.95;34.57
16613;BME280;8419;52.358;9.752;2022-08-14T06:16:33;100562.00;;;32.09;34.40
16613;BME280;8419;52.358;9.752;2022-08-14T06:19:19;100559.00;;;32.09;34.50
16613;BME280;8419;52.358;9.752;2022-08-14T06:22:04;100559.00;;;32.15;34.53
16613;BME280;8419;52.358;9.752;2022-08-14T06:24:50;100550.00;;;32.29;34.34
16613;BME280;8419;52.358;9.752;2022-08-14T06:27:36;100556.00;;;32.42;34.21
16613;BME280;8419;52.358;9.752;2022-08-14T06:30:24;100549.00;;;32.55;34.09
16613;BME280;8419;52.358;9.752;2022-08-14T06:33:10;100547.00;;;32.54;34.17
16613;BME280;8419;52.358;9.752;2022-08-14T06:35:56;100554.00;;;32.60;34.09
16613;BME280;8419;52.358;9.752;2022-08-14T06:38:41;100552.00;;;32.66;34.05
16613;BME280;8419;52.358;9.752;2022-08-14T06:41:27;100554.00;;;32.68;34.10
16613;BME280;8419;52.358;9.752;2022-08-14T06:44:12;100546.00;;;32.78;34.02
16613;BME280;8419;52.358;9.752;2022-08-14T06:46:57;100549.00;;;32.80;34.01
16613;BME280;8419;52.358;9.752;2022-08-14T06:49:42;100553.00;;;32.85;33.97
16613;BME280;8419;52.358;9.752;2022-08-14T06:52:28;100557.00;;;32.93;33.89
16613;BME280;8419;52.358;9.752;2022-08-14T06:55:15;100556.00;;;32.96;33.86
16613;BME280;8419;52.358;9.752;2022-08-14T06:58:02;100559.00;;;32.92;33.97
16613;BME280;8419;52.358;9.752;2022-08-14T07:00:48;100554.00;;;32.99;33.92
16613;BME280;8419;52.358;9.752;2022-08-14T07:03:52;100557.00;;;33.07;33.80
16613;BME280;8419;52.358;9.752;2022-08-14T07:06:56;100563.00;;;33.13;33.72
16613;BME280;8419;52.358;9.752;2022-08-14T07:09:42;100567.00;;;33.12;33.75
16613;BME280;8419;52.358;9.752;2022-08-14T07:12:28;100559.00;;;33.07;34.05
16613;BME280;8419;52.358;9.752;2022-08-14T07:15:13;100556.00;;;33.19;33.84
16613;BME280;8419;52.358;9.752;2022-08-14T07:17:59;100553.00;;;33.18;33.85
16613;BME280;8419;52.358;9.752;2022-08-14T07:20:45;100550.00;;;33.35;33.63
16613;BME280;8419;52.358;9.752;2022-08-14T07:23:31;100540.00;;;33.42;33.54
16613;BME280;8419;52.358;9.752;2022-08-14T07:26:16;100549.00;;;33.50;33.46
16613;BME280;8419;52.358;9.752;2022-08-14T07:29:02;100553.00;;;33.46;33.54
16613;BME280;8419;52.358;9.752;2022-08-14T07:31:47;100545.00;;;33.58;33.36
16613;BME280;8419;52.358;9.752;2022-08-14T07:34:32;100549.00;;;33.71;33.23
16613;BME280;8419;52.358;9.752;2022-08-14T07:37:18;100557.00;;;33.71;33.26
16613;BME280;8419;52.358;9.752;2022-08-14T07:40:06;100560.00;;;33.89;33.01
16613;BME280;8419;52.358;9.752;2022-08-14T07:42:51;100559.00;;;33.85;33.15
16613;BME280;8419;52.358;9.752;2022-08-14T07:45:37;100561.00;;;33.93;33.04
16613;BME280;8419;52.358;9.752;2022-08-14T07:48:22;100549.00;;;34.07;32.87
16613;BME280;8419;52.358;9.752;2022-08-14T07:51:08;100557.00;;;34.11;32.86
16613;BME280;8419;52.358;9.752;2022-08-14T07:53:53;100558.00;;;34.13;32.90
16613;BME280;8419;52.358;9.752;2022-08-14T07:56:40;100556.00;;;34.15;32.88
16613;BME280;8419;52.358;9.752;2022-08-14T07:59:26;100561.00;;;34.28;32.73
16613;BME280;8419;52.358;9.752;2022-08-14T08:02:13;100556.00;;;34.32;32.68
16613;BME280;8419;52.358;9.752;2022-08-14T08:04:59;100558.00;;;34.39;32.56
16613;BME280;8419;52.358;9.752;2022-08-14T08:07:47;100558.00;;;34.50;32.43
16613;BME280;8419;52.358;9.752;2022-08-14T08:10:33;100556.00;;;34.57;32.38
16613;BME280;8419;52.358;9.752;2022-08-14T08:13:20;100552.00;;;34.72;32.13
16613;BME280;8419;52.358;9.752;2022-08-14T08:16:06;100555.00;;;34.84;31.95
16613;BME280;8419;52.358;9.752;2022-08-14T08:18:52;100546.00;;;34.95;31.80
16613;BME280;8419;52.358;9.752;2022-08-14T08:21:38;100548.00;;;35.01;31.68
16613;BME280;8419;52.358;9.752;2022-08-14T08:24:24;100549.00;;;35.09;31.63
16613;BME280;8419;52.358;9.752;2022-08-14T08:27:17;100554.00;;;35.18;31.49
16613;BME280;8419;52.358;9.752;2022-08-14T08:30:06;100554.00;;;35.29;31.39
16613;BME280;8419;52.358;9.752;2022-08-14T08:32:55;100553.00;;;35.38;31.28
16613;BME280;8419;52.358;9.752;2022-08-14T08:35:41;100551.00;;;35.46;31.23
16613;BME280;8419;52.358;9.752;2022-08-14T08:38:27;100550.00;;;35.54;31.11
16613;BME280;8419;52.358;9.752;2022-08-14T08:41:13;100540.00;;;35.69;30.96
16613;BME280;8419;52.358;9.752;2022-08-14T08:44:04;100556.00;;;35.65;30.95
16613;BME280;8419;52.358;9.752;2022-08-14T08:46:57;100548.00;;;35.77;30.82
16613;BME280;8419;52.358;9.752;2022-08-14T08:49:45;100550.00;;;35.78;30.87
16613;BME280;8419;52.358;9.752;2022-08-14T08:52:30;100547.00;;;35.83;30.73
16613;BME280;8419;52.358;9.752;2022-08-14T08:55:23;100540.00;;;35.80;30.74
16613;BME280;8419;52.358;9.752;2022-08-14T08:58:12;100534.00;;;35.85;30.74
16613;BME280;8419;52.358;9.752;2022-08-14T09:00:58;100527.00;;;35.94;30.56
16613;BME280;8419;52.358;9.752;2022-08-14T09:03:46;100520.00;;;36.03;30.45
16613;BME280;8419;52.358;9.752;2022-08-14T09:06:31;100526.00;;;36.12;30.36
16613;BME280;8419;52.358;9.752;2022-08-14T09:09:29;100523.00;;;36.25;30.09
16613;BME280;8419;52.358;9.752;2022-08-14T09:12:16;100516.00;;;36.21;30.19
16613;BME280;8419;52.358;9.752;2022-08-14T09:15:04;100505.00;;;36.34;30.03
16613;BME280;8419;52.358;9.752;2022-08-14T09:17:51;100501.00;;;36.52;29.84
16613;BME280;8419;52.358;9.752;2022-08-14T09:20:42;100500.00;;;36.51;29.92
16613;BME280;8419;52.358;9.752;2022-08-14T09:23:28;100497.00;;;36.68;29.58
16613;BME280;8419;52.358;9.752;2022-08-14T09:26:14;100487.00;;;36.87;29.29
16613;BME280;8419;52.358;9.752;2022-08-14T09:29:00;100491.00;;;36.99;28.98
16613;BME280;8419;52.358;9.752;2022-08-14T09:31:48;100488.00;;;37.17;28.69
16613;BME280;8419;52.358;9.752;2022-08-14T09:34:47;100489.00;;;37.32;28.46
16613;BME280;8419;52.358;9.752;2022-08-14T09:37:47;100481.00;;;37.45;28.31
16613;BME280;8419;52.358;9.752;2022-08-14T09:41:07;100476.00;;;37.59;28.16
16613;BME280;8419;52.358;9.752;2022-08-14T09:44:02;100469.00;;;37.75;27.90
16613;BME280;8419;52.358;9.752;2022-08-14T09:46:54;100475.00;;;37.80;27.77
16613;BME280;8419;52.358;9.752;2022-08-14T09:49:40;100460.00;;;37.86;27.70
16613;BME280;8419;52.358;9.752;2022-08-14T09:52:27;100457.00;;;38.02;27.45
16613;BME280;8419;52.358;9.752;2022-08-14T09:55:16;100451.00;;;38.24;27.15
16613;BME280;8419;52.358;9.752;2022-08-14T09:58:13;100450.00;;;38.30;27.04
16613;BME280;8419;52.358;9.752;2022-08-14T10:01:09;100445.00;;;38.49;26.88
16613;BME280;8419;52.358;9.752;2022-08-14T10:03:55;100443.00;;;38.51;26.91
16613;BME280;8419;52.358;9.752;2022-08-14T10:06:43;100439.00;;;38.62;26.75
16613;BME280;8419;52.358;9.752;2022-08-14T10:09:29;100430.00;;;38.62;26.68
16613;BME280;8419;52.358;9.752;2022-08-14T10:12:15;100440.00;;;38.70;26.58
16613;BME280;8419;52.358;9.752;2022-08-14T10:15:00;100438.00;;;38.85;26.32
16613;BME280;8419;52.358;9.752;2022-08-14T10:17:47;100438.00;;;38.92;26.16
16613;BME280;8419;52.358;9.752;2022-08-14T10:20:35;100434.00;;;38.93;26.05
16613;BME280;8419;52.358;9.752;2022-08-14T10:23:27;100428.00;;;39.03;25.90
16613;BME280;8419;52.358;9.752;2022-08-14T10:26:15;100433.00;;;39.09;25.78
16613;BME280;8419;52.358;9.752;2022-08-14T10:29:05;100432.00;;;39.17;25.59
16613;BME280;8419;52.358;9.752;2022-08-14T10:31:56;100423.00;;;39.27;25.50
16613;BME280;8419;52.358;9.752;2022-08-14T10:34:43;100428.00;;;39.28;25.36
16613;BME280;8419;52.358;9.752;2022-08-14T10:37:37;100423.00;;;39.27;25.29
16613;BME280;8419;52.358;9.752;2022-08-14T10:40:27;100411.00;;;39.36;25.19
16613;BME280;8419;52.358;9.752;2022-08-14T10:43:18;100412.00;;;39.55;24.91
16613;BME280;8419;52.358;9.752;2022-08-14T10:46:12;100400.00;;;39.67;24.84
16613;BME280;8419;52.358;9.752;2022-08-14T10:49:00;100403.00;;;39.85;24.69
16613;BME280;8419;52.358;9.752;2022-08-14T10:51:58;100396.00;;;39.91;24.54
16613;BME280;8419;52.358;9.752;2022-08-14T10:54:48;100388.00;;;40.07;24.42
16613;BME280;8419;52.358;9.752;2022-08-14T10:57:47;100389.00;;;40.14;24.30
16613;BME280;8419;52.358;9.752;2022-08-14T11:00:33;100387.00;;;40.36;24.09
16613;BME280;8419;52.358;9.752;2022-08-14T11:03:19;100375.00;;;40.48;23.96
16613;BME280;8419;52.358;9.752;2022-08-14T11:06:14;100374.00;;;40.86;23.53
16613;BME280;8419;52.358;9.752;2022-08-14T11:09:11;100367.00;;;41.26;23.12
16613;BME280;8419;52.358;9.752;2022-08-14T11:11:58;100370.00;;;41.38;22.97
16613;BME280;8419;52.358;9.752;2022-08-14T11:14:53;100366.00;;;41.24;22.97
16613;BME280;8419;52.358;9.752;2022-08-14T11:17:41;100353.00;;;41.00;23.13
16613;BME280;8419;52.358;9.752;2022-08-14T11:20:28;100363.00;;;41.06;22.98
16613;BME280;8419;52.358;9.752;2022-08-14T11:23:14;100349.00;;;41.22;22.77
16613;BME280;8419;52.358;9.752;2022-08-14T11:26:02;100345.00;;;41.10;22.81
16613;BME280;8419;52.358;9.752;2022-08-14T11:28:51;100354.00;;;41.01;22.86
16613;BME280;8419;52.358;9.752;2022-08-14T11:31:37;100343.00;;;41.28;22.51
16613;BME280;8419;52.358;9.752;2022-08-14T11:34:23;100349.00;;;41.45;22.35
16613;BME280;8419;52.358;9.752;2022-08-14T11:37:09;100354.00;;;41.65;22.02
16613;BME280;8419;52.358;9.752;2022-08-14T11:39:55;100347.00;;;41.91;21.69
16613;BME280;8419;52.358;9.752;2022-08-14T11:42:44;100343.00;;;42.26;21.31
16613;BME280;8419;52.358;9.752;2022-08-14T11:45:33;100333.00;;;42.58;20.99
16613;BME280;8419;52.358;9.752;2022-08-14T11:48:20;100324.00;;;42.78;20.69
16613;BME280;8419;52.358;9.752;2022-08-14T11:51:12;100324.00;;;43.00;20.43
16613;BME280;8419;52.358;9.752;2022-08-14T11:54:03;100313.00;;;43.12;20.20
16613;BME280;8419;52.358;9.752;2022-08-14T11:56:49;100320.00;;;43.01;20.21
16613;BME280;8419;52.358;9.752;2022-08-14T11:59:35;100317.00;;;43.23;20.06
16613;BME280;8419;52.358;9.752;2022-08-14T12:02:20;100316.00;;;43.49;19.80
16613;BME280;8419;52.358;9.752;2022-08-14T12:05:07;100316.00;;;43.63;19.63
16613;BME280;8419;52.358;9.752;2022-08-14T12:07:52;100305.00;;;43.84;19.39
16613;BME280;8419;52.358;9.752;2022-08-14T12:10:41;100310.00;;;43.90;19.32
16613;BME280;8419;52.358;9.752;2022-08-14T12:13:29;100315.00;;;44.09;19.11
16613;BME280;8419;52.358;9.752;2022-08-14T12:16:17;100314.00;;;44.27;18.90
16613;BME280;8419;52.358;9.752;2022-08-14T12:19:05;100306.00;;;44.46;18.71
16613;BME280;8419;52.358;9.752;2022-08-14T12:21:52;100297.00;;;44.75;18.51
16613;BME280;8419;52.358;9.752;2022-08-14T12:24:37;100283.00;;;44.80;18.49
16613;BME280;8419;52.358;9.752;2022-08-14T12:30:28;100295.00;;;45.35;17.81
16613;BME280;8419;52.358;9.752;2022-08-14T12:33:23;100284.00;;;45.78;17.47
16613;BME280;8419;52.358;9.752;2022-08-14T12:36:19;100284.00;;;46.37;17.13
16613;BME280;8419;52.358;9.752;2022-08-14T12:39:18;100275.00;;;46.70;16.79
16613;BME280;8419;52.358;9.752;2022-08-14T12:42:04;100275.00;;;47.05;16.56
16613;BME280;8419;52.358;9.752;2022-08-14T12:44:50;100274.00;;;47.42;16.32
16613;BME280;8419;52.358;9.752;2022-08-14T12:47:36;100269.00;;;47.79;16.04
16613;BME280;8419;52.358;9.752;2022-08-14T12:50:22;100277.00;;;48.00;15.85
16613;BME280;8419;52.358;9.752;2022-08-14T12:53:19;100269.00;;;47.95;15.83
16613;BME280;8419;52.358;9.752;2022-08-14T12:56:05;100255.00;;;47.52;16.05
16613;BME280;8419;52.358;9.752;2022-08-14T12:58:53;100256.00;;;47.92;15.68
16613;BME280;8419;52.358;9.752;2022-08-14T13:01:40;100251.00;;;48.39;15.30
16613;BME280;8419;52.358;9.752;2022-08-14T13:04:27;100238.00;;;48.53;15.16
16613;BME280;8419;52.358;9.752;2022-08-14T13:07:15;100227.00;;;48.60;15.07
16613;BME280;8419;52.358;9.752;2022-08-14T13:10:01;100221.00;;;48.76;14.95
16613;BME280;8419;52.358;9.752;2022-08-14T13:12:48;100222.00;;;48.97;14.74
16613;BME280;8419;52.358;9.752;2022-08-14T13:15:35;100223.00;;;49.01;14.65
16613;BME280;8419;52.358;9.752;2022-08-14T13:18:23;100214.00;;;48.96;14.71
16613;BME280;8419;52.358;9.752;2022-08-14T13:21:11;100193.00;;;49.38;14.40
16613;BME280;8419;52.358;9.752;2022-08-14T13:23:58;100190.00;;;48.95;14.66
16613;BME280;8419;52.358;9.752;2022-08-14T13:26:49;100196.00;;;48.43;14.98
16613;BME280;8419;52.358;9.752;2022-08-14T13:29:39;100193.00;;;48.29;15.05
16613;BME280;8419;52.358;9.752;2022-08-14T13:32:26;100194.00;;;48.27;15.02
16613;BME280;8419;52.358;9.752;2022-08-14T13:35:14;100170.00;;;47.91;15.22
16613;BME280;8419;52.358;9.752;2022-08-14T13:38:00;100174.00;;;47.77;15.25
16613;BME280;8419;52.358;9.752;2022-08-14T13:40:48;100176.00;;;47.22;15.62
16613;BME280;8419;52.358;9.752;2022-08-14T13:43:39;100170.00;;;46.64;15.97
16613;BME280;8419;52.358;9.752;2022-08-14T13:46:26;100172.00;;;46.48;16.08
16613;BME280;8419;52.358;9.752;2022-08-14T13:49:12;100159.00;;;46.45;16.05
16613;BME280;8419;52.358;9.752;2022-08-14T13:51:58;100156.00;;;46.56;15.98
16613;BME280;8419;52.358;9.752;2022-08-14T13:54:47;100154.00;;;46.68;15.87
16613;BME280;8419;52.358;9.752;2022-08-14T13:57:33;100151.00;;;47.04;15.59
16613;BME280;8419;52.358;9.752;2022-08-14T14:00:23;100142.00;;;47.09;15.51
16613;BME280;8419;52.358;9.752;2022-08-14T14:03:09;100142.00;;;47.25;15.48
16613;BME280;8419;52.358;9.752;2022-08-14T14:05:54;100150.00;;;47.04;15.58
16613;BME280;8419;52.358;9.752;2022-08-14T14:08:45;100145.00;;;46.85;15.69
16613;BME280;8419;52.358;9.752;2022-08-14T14:11:32;100135.00;;;46.70;15.78
16613;BME280;8419;52.358;9.752;2022-08-14T14:14:18;100133.00;;;46.47;15.95
16613;BME280;8419;52.358;9.752;2022-08-14T14:17:05;100125.00;;;46.02;16.19
16613;BME280;8419;52.358;9.752;2022-08-14T14:19:51;100125.00;;;45.88;16.18
16613;BME280;8419;52.358;9.752;2022-08-14T14:22:39;100120.00;;;46.03;16.03
16613;BME280;8419;52.358;9.752;2022-08-14T14:25:26;100109.00;;;46.06;16.01
16613;BME280;8419;52.358;9.752;2022-08-14T14:28:14;100119.00;;;45.68;16.25
16613;BME280;8419;52.358;9.752;2022-08-14T14:31:02;100121.00;;;45.43;16.41
16613;BME280;8419;52.358;9.752;2022-08-14T14:33:49;100117.00;;;45.32;16.46
16613;BME280;8419;52.358;9.752;2022-08-14T14:36:35;100120.00;;;45.27;16.46
16613;BME280;8419;52.358;9.752;2022-08-14T14:39:23;100101.00;;;45.21;16.46
16613;BME280;8419;52.358;9.752;2022-08-14T14:42:10;100113.00;;;45.16;16.45
16613;BME280;8419;52.358;9.752;2022-08-14T14:45:03;100095.00;;;45.11;16.41
16613;BME280;8419;52.358;9.752;2022-08-14T14:47:50;100093.00;;;45.04;16.41
16613;BME280;8419;52.358;9.752;2022-08-14T14:50:36;100092.00;;;44.76;16.55